Terminal Aerodrome Forecast
Issued by NWS Cleveland, OH

Home | Current Version | Previous Version | Graphics & Text | Print | Product List | Glossary On
Versions: 1 2 3 4 5 6 7 8 9 10 11 12 13 14 15 16 17
000
FTUS41 KCLE 171123
TAFMFD
TAF
KMFD 171123Z 1712/1812 03005KT P6SM SCT030
     FM171500 05011KT P6SM SCT250
     FM172000 05012G18KT P6SM SCT250
     FM180200 03008KT P6SM BKN200
     FM180800 07009KT 5SM BR BKN070=

USA.gov is the U.S. government's official web portal to all federal, state and local government web resources and services.